Tiempo atmosférico en la estación meteorológica de Montanejos, Castelló/Castellón (601 m.)



Fecha
DESCASC
Temp. máxima en grados centígrados (hora)
DESCASC
Temp. mínima en grados centígrados (hora)
DESCASC
Temp. media en grados centígrados
DESCASC
Racha de viento máxima en m/sg (hora)
DESCASC
Velocidad máxima media en intervalos de 10 minutos(hora)
DESCASC
Precipitaciones diarias en mm
DESCASC
Precipitaciones de 00:00 a 06:00 en mm
DESCASC
Precipitaciones de 06:00 a 12:00 en mm
DESCASC
Precipitaciones de 12:00 a 18:00 en mm
DESCASC
Precipitaciones de 18:00 a 24:00 en mm
DESCASC
25-04-2019 15.8 (16:30) 10.8 (22:20) 13.3 16.11 (18:20) 10 (18:30) 0 0 0 0 0
24-04-2019 17 (19:40) 5.6 (07:50) 11.3 12.78 (16:30) 6.11 (17:20) 0 0 0 0 0
23-04-2019 16.8 (13:30) 7.7 (08:10) 12.2 10.56 (15:10) 6.39 (15:10) 0 0 0 0 0
22-04-2019 15 (17:10) 9.8 (00:00) 12.4 7.78 (17:50) 4.72 (17:40) 0.4 0 0.2 0.2 0
21-04-2019 11.9 (14:50) 8.3 (00:00) 10.1 8.33 (00:10) 3.33 (10:20) 0.6 0.6 0 0 0
20-04-2019 15.7 (12:40) 9.4 (00:00) 12.5 16.39 (13:10) 7.5 (11:50) 4.6 0 0 4.2 0.4
19-04-2019 11.3 (08:30) 9 (00:00) 10.2 11.67 (14:40) 6.39 (14:50) 73.8 47.4 10.2 11 5.2
18-04-2019 12.3 (13:10) 8.8 (00:00) 10.6 10.83 (14:40) 6.39 (23:10) 36 0 0 2.4 33.6
17-04-2019 16.9 (16:20) 7.1 (00:00) 12 9.44 (16:30) 5.28 (14:50) 0 0 0 0 0
16-04-2019 19 (13:40) 8.5 (00:00) 13.8 10.56 (14:00) 5.83 (14:00) 0 0 0 0 0
15-04-2019 17.7 (15:10) 9.5 (00:00) 13.6 11.39 (15:10) 6.11 (15:20) 0 0 0 0 0
14-04-2019 24.2 (17:40) 7.4 (00:00) 15.8 11.11 (12:00) 7.78 (12:10) 0 0 0 0 0
13-04-2019 21.9 (15:40) 4.6 (00:00) 13.2 9.17 (17:50) 4.72 (17:50) 0 0 0 0 0
12-04-2019 17.9 (17:20) 7.4 (00:00) 12.6 11.67 (00:10) 8.89 (00:10) 0 0 0 0 0
11-04-2019 15.7 (16:00) 8.3 (00:00) 12 13.33 (18:50) 8.89 (10:50) 0 0 0 0 0
10-04-2019 14.6 (16:10) 8.3 (00:00) 11.5 12.5 (06:50) 7.5 (05:40) 0 0 0 0 0
09-04-2019 15.3 (15:50) 8.2 (00:00) 11.8 13.61 (18:00) 8.06 (18:00) 0.6 0 0 0 0.6
08-04-2019 18.9 (17:20) 6.7 (00:00) 12.8 12.22 (17:40) 6.11 (19:10) 3.8 0 0 3.8 0
07-04-2019 13.6 (18:50) 6.2 (00:00) 9.9 16.11 (12:00) 10 (10:00) 0 0 0 0 0
06-04-2019 11.9 (15:10) 4.1 (00:00) 8 13.33 (02:10) 7.78 (04:20) 0.6 0 0 0.4 0.2
05-04-2019 13.4 (14:20) 4.6 (00:00) 9 11.39 (16:30) 7.22 (16:40) 0.2 0 0 0.2 0
04-04-2019 15.3 (17:10) 3.8 (00:00) 9.6 10.28 (03:40) 6.39 (03:40) 0 0 0 0 0
03-04-2019 18.3 (16:50) 6.1 (00:00) 12.2 12.22 (20:20) 7.78 (20:20) 0 0 0 0 0
02-04-2019 17.4 (13:50) 6.3 (00:00) 11.8 10.28 (15:50) 6.11 (15:50) 1.4 0.2 0 1 0.2
01-04-2019 13.2 (18:50) 7.2 (00:00) 10.2 4.17 (16:20) 2.5 (16:20) 4 2.2 1.6 0.2 0
31-03-2019 8.3 (19:00) 6.6 (00:00) 7.5 5 (21:00) 3.06 (21:00) 20 0 3.4 11 5.6
30-03-2019 15.6 (14:20) 2.3 (00:00) 9 11.39 (15:10) 6.11 (16:40) 0 0 0 0 0
29-03-2019 15.1 (14:20) 1.3 (00:00) 8.2 10.28 (13:40) 6.11 (14:00) 0 0 0 0 0
28-03-2019 17.1 (13:20) 1.9 (00:00) 9.5 11.39 (14:30) 6.67 (14:30) 0 0 0 0 0
27-03-2019 16.6 (14:30) 4.8 (00:00) 10.7 10.28 (15:50) 5.83 (15:20) 0 0 0 0 0

Gráficas

Temp. máximas Temp. mínimas Temp. medias Precipitaciones Rachas de viento máximas Velocidades máximas media en intervalos de 10 minutos

Datos horarios

Fecha y hora oficial Temperatura (ºC) Velocidad del viento (km/h) Dirección del viento Racha (km/h) Dirección de racha Precipitación (mm) Presión (hPa) Tendencia (hPa) Humedad (%)
2019-04-25 23:00:00 11.3 18 Noroeste 37 Oeste 0 -- -- 58
2019-04-25 22:00:00 11.2 16 Oeste 34 Oeste 0 -- -- 58
2019-04-25 21:00:00 12 13 Oeste 38 Noroeste 0 -- -- 58
2019-04-25 20:00:00 13 14 Oeste 38 Noroeste 0 -- -- 57
2019-04-25 19:00:00 12.4 20 Noroeste 58 Norte 0 -- -- 59
2019-04-25 18:00:00 15.6 21 Noroeste 43 Oeste 0 -- -- 44
2019-04-25 17:00:00 15.5 16 Noroeste 46 Noroeste 0 -- -- 44
2019-04-25 16:00:00 15.1 25 Noroeste 37 Noroeste 0 -- -- 45
2019-04-25 15:00:00 14.9 17 Noroeste 45 Oeste 0 -- -- 44
2019-04-25 14:00:00 14.3 12 Noroeste 41 Noroeste 0 -- -- 49
2019-04-25 13:00:00 15.2 19 Noroeste 41 Oeste 0 -- -- 50
2019-04-25 12:00:00 15.5 18 Noroeste 49 Noroeste 0 -- -- 51
2019-04-25 11:00:00 13.9 10 Oeste 26 Oeste 0 -- -- 60
2019-04-25 10:00:00 13.2 5 Noroeste 19 Oeste 0 -- -- 66
2019-04-25 09:00:00 13.6 12 Noroeste 32 Noroeste 0 -- -- 60
2019-04-25 08:00:00 12.9 3 Sudeste 34 Noroeste 0 -- -- 75
2019-04-25 07:00:00 13.7 15 Noroeste 48 Oeste 0 -- -- 70
2019-04-25 06:00:00 14.4 19 Noroeste 44 Noroeste 0 -- -- 65
2019-04-25 05:00:00 14.4 25 Noroeste 51 Noroeste 0 -- -- 65
2019-04-25 04:00:00 13 8 Norte 23 Este 0 -- -- 71
2019-04-25 03:00:00 12.2 4 Sudeste 18 Este 0 -- -- 78
2019-04-25 02:00:00 11.9 6 Sur 12 Sur 0 -- -- 84
2019-04-25 01:00:00 13.4 4 Nordeste 23 Este 0 -- -- 70
2019-04-25 00:00:00 13 5 Sudeste 14 Sur 0 -- -- 65
2019-04-24 23:00:00 13.2 3 Norte 14 Sur 0 -- -- 63
2019-04-24 22:00:00 13.6 3 Oeste 26 Sur 0 -- -- 60
2019-04-24 21:00:00 14.6 8 Sur 22 Sur 0 -- -- 57
2019-04-24 20:00:00 16.5 6 Norte 18 Noroeste 0 -- -- 53
2019-04-24 19:00:00 16.1 7 Norte 27 Norte 0 -- -- 54
2019-04-24 18:00:00 16.8 13 Norte 41 Noroeste 0 -- -- 51
2019-04-24 17:00:00 16.4 17 Norte 46 Oeste 0 -- -- 52
2019-04-24 16:00:00 14.7 16 Noroeste 39 Noroeste 0 -- -- 55
2019-04-24 15:00:00 13.7 13 Norte 35 Noroeste 0 -- -- 55
2019-04-24 14:00:00 12.6 14 Noroeste 32 Noroeste 0 -- -- 55
2019-04-24 13:00:00 12 11 Noroeste 35 Noroeste 0 -- -- 52
2019-04-24 12:00:00 11.6 11 Noroeste 36 Noroeste 0 -- -- 52
2019-04-24 11:00:00 10.2 11 Noroeste 31 Noroeste 0 -- -- 54
2019-04-24 10:00:00 9.9 8 Sudoeste 32 Noroeste 0 -- -- 52
2019-04-24 09:00:00 7.8 2 Nordeste 24 Oeste 0 -- -- 62
2019-04-24 08:00:00 5.8 4 Sur 9 Noroeste 0 -- -- 74
2019-04-24 07:00:00 7 4 Noroeste 16 Noroeste 0 -- -- 69
2019-04-24 06:00:00 7.7 11 Noroeste 24 Noroeste 0 -- -- 65
2019-04-24 05:00:00 8.2 10 Norte 23 Noroeste 0 -- -- 63
2019-04-24 04:00:00 8.6 10 Noroeste 34 Noroeste 0 -- -- 62
2019-04-24 03:00:00 8.8 10 Noroeste 26 Oeste 0 -- -- 65
2019-04-24 02:00:00 9.1 13 Noroeste 27 Oeste 0 -- -- 61
2019-04-24 01:00:00 9.7 13 Noroeste 26 Noroeste 0 -- -- 61
2019-04-24 00:00:00 10.1 4 Noroeste 17 Oeste 0 -- -- 60
2019-04-23 23:00:00 11.1 13 Noroeste 22 Noroeste 0 -- -- 55
2019-04-23 22:00:00 11.7 10 Noroeste 18 Noroeste 0 -- -- 50
2019-04-23 21:00:00 12.1 3 Noroeste 27 Noroeste 0 -- -- 56
2019-04-23 20:00:00 14.3 13 Oeste 33 Oeste 0 -- -- 46
2019-04-23 19:00:00 14.2 9 Noroeste 19 Noroeste 0 -- -- 54
2019-04-23 18:00:00 13.2 0 Calma 12 Noroeste 0 -- -- 61
2019-04-23 17:00:00 12.7 10 Norte 30 Noroeste 0 -- -- 60
2019-04-23 16:00:00 13.6 15 Noroeste 38 Norte 0 -- -- 62
2019-04-23 15:00:00 14.8 10 Oeste 32 Noroeste 0 -- -- 61
2019-04-23 14:00:00 15.7 8 Oeste 30 Oeste 0 -- -- 54
2019-04-23 13:00:00 15.7 8 Norte 26 Norte 0 -- -- 59
2019-04-23 12:00:00 15 11 Norte 19 Norte 0 -- -- 64
2019-04-23 11:00:00 12.5 10 Noroeste 21 Noroeste 0 -- -- 77
2019-04-23 10:00:00 9.6 5 Noroeste 12 Norte 0 -- -- 89
2019-04-23 09:00:00 8.4 3 Oeste 10 Noroeste 0 -- -- 93
2019-04-23 08:00:00 7.8 5 Noroeste 12 Noroeste 0 -- -- 95
2019-04-23 07:00:00 8 5 Noroeste 14 Noroeste 0 -- -- 96
2019-04-23 06:00:00 8.2 6 Norte 15 Norte 0 -- -- 97
2019-04-23 05:00:00 8.3 7 Noroeste 14 Noroeste 0 -- -- 97
2019-04-23 04:00:00 8.1 3 Noroeste 6 Noroeste 0 -- -- 97
2019-04-23 03:00:00 8.2 0 Calma 4 Norte 0 -- -- 96
2019-04-23 02:00:00 8.9 0 Calma 4 Nordeste 0 -- -- 94
2019-04-23 01:00:00 9.9 0 Calma 6 Este 0 -- -- 92
2019-04-23 00:00:00 10.5 0 Calma 4 Nordeste 0 -- -- 92
2019-04-22 23:00:00 10.8 0 Calma 2 Sudoeste 0 -- -- 90
2019-04-22 22:00:00 11.3 0 Calma 4 Nordeste 0 -- -- 86
2019-04-22 21:00:00 11.8 0 Calma 2 Sudeste 0 -- -- 83
2019-04-22 20:00:00 12.3 0 Calma 8 Sur 0 -- -- 80
2019-04-22 19:00:00 12.3 6 Sur 21 Sudoeste 0 -- -- 76
2019-04-22 18:00:00 12.9 14 Sur 28 Sudoeste 0 -- -- 73
2019-04-22 17:00:00 14.9 4 Noroeste 11 Noroeste 0 -- -- 62
2019-04-22 16:00:00 14 5 Norte 16 Noroeste 0 -- -- 65
2019-04-22 15:00:00 12.9 8 Noroeste 17 Norte 0.2 -- -- 70
2019-04-22 14:00:00 12.3 9 Noroeste 16 Noroeste 0 -- -- 71
2019-04-22 13:00:00 10.9 4 Norte 10 Noroeste 0 -- -- 82
2019-04-22 12:00:00 10.9 6 Noroeste 12 Norte 0.2 -- -- 79
2019-04-22 11:00:00 10.7 8 Norte 16 Noroeste 0 -- -- 78
2019-04-22 10:00:00 10.6 10 Norte 16 Norte 0 -- -- 77
2019-04-22 09:00:00 10.2 8 Norte 14 Norte 0 -- -- 79
2019-04-22 08:00:00 9.8 0 Calma 4 Norte 0 -- -- 84
2019-04-22 07:00:00 10.1 0 Calma 13 Norte 0 -- -- 79
2019-04-22 06:00:00 10.5 9 Noroeste 19 Noroeste 0 -- -- 77
2019-04-22 05:00:00 10.7 0 Calma 10 Norte 0 -- -- 75
2019-04-22 04:00:00 11.5 6 Noroeste 19 Noroeste 0 -- -- 67
2019-04-22 03:00:00 11.1 2 Norte 9 Oeste 0 -- -- 69
2019-04-22 02:00:00 11.3 5 Noroeste 17 Norte 0 -- -- 67
2019-04-22 01:00:00 10.8 0 Calma 9 Este 0 -- -- 74
2019-04-22 00:00:00 10.9 3 Noroeste 11 Oeste 0 -- -- 72
2019-04-21 23:00:00 10.7 5 Sur 12 Sur 0 -- -- 74
2019-04-21 22:00:00 10.6 3 Sur 11 Oeste 0 -- -- 69
2019-04-21 21:00:00 11.2 2 Sur 29 Sudoeste 0 -- -- 66
2019-04-21 20:00:00 10.7 6 Sur 24 Sur 0 -- -- 70
2019-04-21 19:00:00 10.9 3 Noroeste 8 Norte 0 -- -- 74
2019-04-21 18:00:00 11.1 2 Oeste 12 Sur 0 -- -- 70
2019-04-21 17:00:00 11.4 5 Sur 23 Sur 0 -- -- 68
2019-04-21 16:00:00 11.7 3 Noroeste 29 Sur 0 -- -- 67
2019-04-21 15:00:00 11.9 4 Oeste 18 Sur 0 -- -- 66
2019-04-21 14:00:00 11.1 0 Calma 9 Norte 0 -- -- 74
2019-04-21 13:00:00 10.9 5 Noroeste 14 Sur 0 -- -- 78
2019-04-21 12:00:00 10 3 Sur 26 Sudoeste 0 -- -- 81
2019-04-21 11:00:00 10.6 9 Sur 25 Sur 0 -- -- 72
2019-04-21 10:00:00 10.9 7 Sur 18 Sur 0 -- -- 69
2019-04-21 09:00:00 10.1 0 Calma 11 Noroeste 0 -- -- 72
2019-04-21 08:00:00 9.1 5 Norte 13 Noroeste 0 -- -- 82
2019-04-21 07:00:00 9.2 3 Noroeste 12 Noroeste 0 -- -- 80
2019-04-21 06:00:00 9.5 3 Norte 12 Oeste 0 -- -- 78
2019-04-21 05:00:00 9 3 Sur 8 Norte 0 -- -- 79
2019-04-21 04:00:00 8.6 0 Calma 10 Oeste 0 -- -- 86
2019-04-21 03:00:00 8.5 0 Calma 11 Sudoeste 0 -- -- 81
2019-04-21 02:00:00 8.5 4 Oeste 16 Oeste 0.4 -- -- 83
2019-04-21 01:00:00 9.1 6 Oeste 30 Sur 0.2 -- -- 77
2019-04-21 00:00:00 9.6 5 Sur 21 Sudeste 0.2 -- -- 68
2019-04-20 23:00:00 10 9 Noroeste 31 Norte 0.2 -- -- 69
2019-04-20 22:00:00 9.6 4 Oeste 23 Nordeste 0 -- -- 72
2019-04-20 21:00:00 10.1 8 Sur 28 Sudeste 0 -- -- 69
2019-04-20 20:00:00 10.6 7 Oeste 22 Norte 0 -- -- 65
2019-04-20 19:00:00 10.7 3 Noroeste 11 Oeste 0 -- -- 71
2019-04-20 18:00:00 10.1 5 Sudoeste 15 Nordeste 0.2 -- -- 75
2019-04-20 17:00:00 9.5 6 Sudoeste 22 Sur 1.6 -- -- 84
2019-04-20 16:00:00 9.6 7 Sur 32 Sur 2.4 -- -- 87
2019-04-20 15:00:00 13.2 10 Sur 33 Sur 0 -- -- 57
2019-04-20 14:00:00 13.9 16 Sur 59 Sur 0 -- -- 52
2019-04-20 13:00:00 15.4 14 Sudoeste 58 Sur 0 -- -- 47
2019-04-20 12:00:00 14.6 25 Sur 57 Sur 0 -- -- 51
2019-04-20 11:00:00 14 17 Sur 42 Sudoeste 0 -- -- 51
2019-04-20 10:00:00 13.9 15 Sur 37 Sudeste 0 -- -- 54
2019-04-20 09:00:00 13.6 9 Sudoeste 31 Sur 0 -- -- 62
2019-04-20 08:00:00 12.8 8 Sur 22 Sur 0 -- -- 61
2019-04-20 07:00:00 13.2 10 Sur 33 Sur 0 -- -- 58
2019-04-20 06:00:00 13.3 14 Sur 33 Sur 0 -- -- 59
2019-04-20 05:00:00 12.9 9 Sur 22 Sur 0 -- -- 62
2019-04-20 04:00:00 12.6 7 Sur 35 Sur 0 -- -- 64
2019-04-20 03:00:00 12 7 Sudoeste 30 Sur 0 -- -- 66
2019-04-20 02:00:00 11.6 6 Oeste 26 Sur 0 -- -- 73
2019-04-20 01:00:00 10.6 9 Sur 21 Sur 0 -- -- 80
2019-04-20 00:00:00 11 12 Sur 24 Sudeste 0 -- -- 79
2019-04-19 23:00:00 11 9 Sur 36 Sur 0 -- -- 84
2019-04-19 22:00:00 10.5 9 Sur 33 Sur 0.6 -- -- 90
2019-04-19 21:00:00 10.3 10 Sur 26 Sur 1.4 -- -- 93
2019-04-19 20:00:00 10.2 13 Sur 34 Sur 1 -- -- 93
2019-04-19 19:00:00 10.3 12 Sur 35 Sur 2.2 -- -- 95
2019-04-19 18:00:00 10.1 15 Sur 37 Sur 6 -- -- 95
2019-04-19 17:00:00 10.4 17 Sur 37 Sur 3.4 -- -- 92
2019-04-19 16:00:00 10.7 13 Sur 39 Sur 0 -- -- 87
2019-04-19 15:00:00 10.3 17 Sur 42 Sur 1 -- -- 94
2019-04-19 14:00:00 10.3 16 Sur 40 Sur 0.4 -- -- 97
2019-04-19 13:00:00 10.6 18 Sur 37 Sudoeste 0.2 -- -- 97
2019-04-19 12:00:00 10.9 19 Sur 39 Sur 0.4 -- -- 97
2019-04-19 11:00:00 11 17 Sur 30 Sur 3.4 -- -- 98
2019-04-19 10:00:00 11.2 15 Sur 29 Sur 4 -- -- 98
2019-04-19 09:00:00 11.2 12 Sur 27 Sur 1.4 -- -- 98
2019-04-19 08:00:00 11.2 11 Sur 23 Sur 0.4 -- -- 98
2019-04-19 07:00:00 11 12 Sur 22 Sur 0.6 -- -- 99
2019-04-19 06:00:00 10.6 0 Calma 12 Sur 11 -- -- 99
2019-04-19 05:00:00 11.1 6 Sur 22 Sur 10.2 -- -- 99
2019-04-19 04:00:00 11.1 5 Sur 19 Sur 9 -- -- 99
2019-04-19 03:00:00 11.1 6 Sur 17 Sur 7 -- -- 99
2019-04-19 02:00:00 10.6 3 Sur 10 Sudoeste 3 -- -- 100
2019-04-19 01:00:00 9.2 0 Calma 10 Noroeste 7.2 -- -- 99
2019-04-19 00:00:00 9 9 Noroeste 37 Noroeste 13.6 -- -- 98
2019-04-18 23:00:00 10.3 11 Norte 31 Sur 8.4 -- -- 95
2019-04-18 22:00:00 10.9 13 Sur 35 Sur 3 -- -- 97
2019-04-18 21:00:00 10.6 17 Sur 38 Sudoeste 2.8 -- -- 98
2019-04-18 20:00:00 10.6 18 Sur 33 Sur 2.4 -- -- 97
2019-04-18 19:00:00 10.5 15 Sur 31 Sur 3.4 -- -- 96
2019-04-18 18:00:00 10.4 12 Sur 28 Sur 2.4 -- -- 95
2019-04-18 17:00:00 11.2 14 Sur 35 Sur 0 -- -- 87
2019-04-18 16:00:00 11.8 13 Sur 29 Sur 0 -- -- 80
2019-04-18 15:00:00 12.1 16 Sur 39 Sur 0 -- -- 78
2019-04-18 14:00:00 12.2 10 Sur 36 Sur 0 -- -- 76
2019-04-18 13:00:00 12.2 10 Sudoeste 32 Sur 0 -- -- 74
2019-04-18 12:00:00 12.2 9 Sur 32 Sur 0 -- -- 74
2019-04-18 11:00:00 11.8 21 Sur 37 Sudoeste 0 -- -- 76
2019-04-18 10:00:00 10.8 12 Sur 18 Sur 0 -- -- 83
2019-04-18 09:00:00 10 10 Sur 24 Sur 0 -- -- 81
2019-04-18 08:00:00 9.1 0 Calma 9 Sudoeste 0 -- -- 86
2019-04-18 07:00:00 8.9 2 Noroeste 14 Norte 0 -- -- 88
2019-04-18 06:00:00 8.8 3 Oeste 8 Noroeste 0 -- -- 89
2019-04-18 05:00:00 9 8 Noroeste 14 Noroeste 0 -- -- 88
2019-04-18 04:00:00 9.1 3 Noroeste 10 Noroeste 0 -- -- 90
2019-04-18 03:00:00 9.1 0 Calma 3 Sur 0 -- -- 91
2019-04-18 02:00:00 9.7 0 Calma 3 Sudoeste 0 -- -- 90
2019-04-18 01:00:00 10.2 0 Calma 5 Noroeste 0 -- -- 89
2019-04-18 00:00:00 10.6 2 Sur 15 Sudoeste 0 -- -- 87
2019-04-17 23:00:00 11 8 Sur 14 Sur 0 -- -- 88
2019-04-17 22:00:00 11.4 9 Sur 19 Sur 0 -- -- 82
2019-04-17 21:00:00 12.1 13 Sur 25 Sudoeste 0 -- -- 83
2019-04-17 20:00:00 13.1 14 Sur 25 Sur 0 -- -- 78
2019-04-17 19:00:00 14.4 10 Sur 31 Sur 0 -- -- 73
2019-04-17 18:00:00 15.3 17 Sur 33 Sur 0 -- -- 68
2019-04-17 17:00:00 16.1 14 Sur 34 Sur 0 -- -- 64
2019-04-17 16:00:00 16.8 16 Sur 31 Sur 0 -- -- 60
2019-04-17 15:00:00 16.8 17 Sur 31 Sur 0 -- -- 59
2019-04-17 14:00:00 16.2 11 Sur 27 Sur 0 -- -- 60
2019-04-17 13:00:00 15.3 12 Sur 22 Sur 0 -- -- 60
2019-04-17 12:00:00 14.8 5 Sudeste 24 Sur 0 -- -- 62
2019-04-17 11:00:00 13 7 Sur 19 Sur 0 -- -- 68
2019-04-17 10:00:00 11 12 Sur 20 Sudoeste 0 -- -- 75
2019-04-17 09:00:00 8 0 Calma 3 Sudoeste 0 -- -- 91
2019-04-17 08:00:00 7.1 0 Calma 5 Oeste 0 -- -- 94
2019-04-17 07:00:00 7.2 0 Calma 3 Sur 0 -- -- 93
2019-04-17 06:00:00 7.8 0 Calma 8 Sudeste 0 -- -- 92
2019-04-17 05:00:00 8.4 0 Calma 7 Sudeste 0 -- -- 90
2019-04-17 04:00:00 9.4 4 Sudeste 7 Oeste 0 -- -- 88
2019-04-17 03:00:00 10.4 0 Calma 11 Sur 0 -- -- 85
2019-04-17 02:00:00 10.2 7 Sur 13 Sur 0 -- -- 86
2019-04-17 01:00:00 10.2 6 Sur 14 Sudoeste 0 -- -- 86
2019-04-17 00:00:00 10.2 6 Sur 20 Sur 0 -- -- 88
2019-04-16 23:00:00 11 11 Sur 19 Sur 0 -- -- 84
2019-04-16 22:00:00 12 11 Sur 18 Sur 0 -- -- 77
2019-04-16 21:00:00 13 9 Sur 22 Sur 0 -- -- 72
2019-04-16 20:00:00 13.7 9 Sur 25 Sur 0 -- -- 71
2019-04-16 19:00:00 14.6 14 Sur 27 Sudoeste 0 -- -- 68
2019-04-16 18:00:00 15.4 11 Sur 27 Sudeste 0 -- -- 66
2019-04-16 17:00:00 16.6 12 Sur 33 Sudoeste 0 -- -- 63
2019-04-16 16:00:00 16.1 12 Sur 33 Sur 0 -- -- 66
2019-04-16 15:00:00 17.9 13 Sur 33 Sur 0 -- -- 59
2019-04-16 14:00:00 17.7 21 Sur 38 Sudoeste 0 -- -- 56
2019-04-16 13:00:00 18.3 14 Sudoeste 27 Sur 0 -- -- 51
2019-04-16 12:00:00 17.3 12 Sur 25 Sur 0 -- -- 54
2019-04-16 11:00:00 16 4 Norte 10 Norte 0 -- -- 52
2019-04-16 10:00:00 14.1 4 Este 17 Norte 0 -- -- 61
2019-04-16 09:00:00 8.8 4 Norte 10 Este 0 -- -- 86
2019-04-16 08:00:00 8.6 5 Sudeste 13 Sudeste 0 -- -- 86
2019-04-16 07:00:00 10 3 Sur 10 Norte 0 -- -- 78
2019-04-16 06:00:00 10.1 3 Noroeste 9 Norte 0 -- -- 83
2019-04-16 05:00:00 9.9 3 Norte 8 Norte 0 -- -- 86
2019-04-16 04:00:00 10 2 Sur 9 Nordeste 0 -- -- 83
2019-04-16 03:00:00 9.8 3 Noroeste 7 Oeste 0 -- -- 83
2019-04-16 02:00:00 10 2 Este 19 Sudoeste 0 -- -- 80
2019-04-16 01:00:00 9.7 6 Noroeste 10 Noroeste 0 -- -- 84
2019-04-16 00:00:00 10 2 Sudoeste 18 Noroeste 0 -- -- 82
2019-04-15 23:00:00 10.4 6 Sur 14 Sudoeste 0 -- -- 80
2019-04-15 22:00:00 11.2 3 Sur 15 Sudoeste 0 -- -- 76
2019-04-15 21:00:00 12.2 9 Sur 23 Sudoeste 0 -- -- 69
2019-04-15 20:00:00 14 12 Sur 25 Sur 0 -- -- 61
2019-04-15 19:00:00 15.6 13 Sur 30 Sur 0 -- -- 56
2019-04-15 18:00:00 16.6 16 Sur 32 Sur 0 -- -- 52
2019-04-15 17:00:00 17.2 19 Sur 36 Sur 0 -- -- 50
2019-04-15 16:00:00 16.9 15 Sur 41 Sur 0 -- -- 51
2019-04-15 15:00:00 17.4 18 Sur 37 Sudoeste 0 -- -- 50
2019-04-15 14:00:00 16.3 11 Sur 31 Sur 0 -- -- 53
2019-04-15 13:00:00 16.1 15 Sur 32 Sur 0 -- -- 55
2019-04-15 12:00:00 15.3 14 Sur 30 Sur 0 -- -- 61
2019-04-15 11:00:00 14.1 17 Sur 24 Sur 0 -- -- 65
2019-04-15 10:00:00 12 0 Calma 5 Oeste 0 -- -- 78
2019-04-15 09:00:00 10.2 0 Calma 5 Sudoeste 0 -- -- 88
2019-04-15 08:00:00 9.6 4 Sudoeste 17 Sur 0 -- -- 91
2019-04-15 07:00:00 9.5 2 Sudeste 10 Sur 0 -- -- 82
2019-04-15 06:00:00 10.5 3 Oeste 8 Oeste 0 -- -- 76
2019-04-15 05:00:00 11.2 4 Noroeste 8 Oeste 0 -- -- 75
2019-04-15 04:00:00 11.5 0 Calma 9 Noroeste 0 -- -- 72
2019-04-15 03:00:00 12 3 Oeste 11 Noroeste 0 -- -- 67
2019-04-15 02:00:00 12.4 3 Oeste 7 Norte 0 -- -- 65
2019-04-15 01:00:00 12.8 2 Norte 5 Nordeste 0 -- -- 64
2019-04-15 00:00:00 13.6 0 Calma 6 Norte 0 -- -- 60
2019-04-14 23:00:00 15 2 Norte 8 Norte 0 -- -- 55
2019-04-14 22:00:00 16.9 3 Norte 6 Nordeste 0 -- -- 50
2019-04-14 21:00:00 18.9 7 Sur 24 Sudoeste 0 -- -- 41
2019-04-14 20:00:00 21 16 Sur 28 Sur 0 -- -- 37
2019-04-14 19:00:00 22.8 18 Sur 32 Sur 0 -- -- 34
2019-04-14 18:00:00 24.1 8 Sur 21 Noroeste 0 -- -- 32
2019-04-14 17:00:00 24.1 13 Noroeste 33 Noroeste 0 -- -- 36
2019-04-14 16:00:00 23.5 15 Noroeste 34 Noroeste 0 -- -- 36
2019-04-14 15:00:00 22.9 18 Noroeste 33 Noroeste 0 -- -- 37
2019-04-14 14:00:00 21.5 15 Noroeste 36 Oeste 0 -- -- 40
2019-04-14 13:00:00 20.3 17 Noroeste 39 Noroeste 0 -- -- 45
2019-04-14 12:00:00 19 25 Noroeste 40 Noroeste 0 -- -- 48
2019-04-14 11:00:00 17.8 11 Noroeste 19 Noroeste 0 -- -- 44
2019-04-14 10:00:00 13.4 2 Sur 5 Noroeste 0 -- -- 43
2019-04-14 09:00:00 10.2 2 Norte 6 Noroeste 0 -- -- 52
2019-04-14 08:00:00 9.5 3 Noroeste 11 Oeste 0 -- -- 50
2019-04-14 07:00:00 9.2 5 Noroeste 12 Oeste 0 -- -- 46
2019-04-14 06:00:00 9.3 7 Noroeste 19 Norte 0 -- -- 49
2019-04-14 05:00:00 9.7 15 Noroeste 20 Noroeste 0 -- -- 49
2019-04-14 04:00:00 7.6 6 Noroeste 14 Noroeste 0 -- -- 59
2019-04-14 03:00:00 7.8 9 Noroeste 17 Noroeste 0 -- -- 59
2019-04-14 02:00:00 8 5 Noroeste 10 Noroeste 0 -- -- 63
2019-04-14 01:00:00 8.7 5 Noroeste 9 Noroeste 0 -- -- 64
2019-04-14 00:00:00 9.5 2 Noroeste 5 Noroeste 0 -- -- 65
2019-04-13 23:00:00 10.9 2 Noroeste 8 Norte 0 -- -- 61
2019-04-13 22:00:00 12.2 4 Norte 8 Nordeste 0 -- -- 58
2019-04-13 21:00:00 14.6 2 Sudeste 14 Sur 0 -- -- 47
2019-04-13 20:00:00 17 7 Sur 22 Sur 0 -- -- 41
2019-04-13 19:00:00 18.2 15 Sur 30 Sur 0 -- -- 39
2019-04-13 18:00:00 19.3 13 Sur 33 Sudoeste 0 -- -- 39
2019-04-13 17:00:00 20.3 13 Sur 28 Sur 0 -- -- 36
2019-04-13 16:00:00 21.1 17 Sur 27 Sudoeste 0 -- -- 31
2019-04-13 15:00:00 21.1 4 Noroeste 15 Norte 0 -- -- 23
2019-04-13 14:00:00 19.6 3 Noroeste 11 Noroeste 0 -- -- 24
2019-04-13 13:00:00 17.7 4 Noroeste 8 Noroeste 0 -- -- 30
2019-04-13 12:00:00 16.1 4 Norte 6 Noroeste 0 -- -- 31
2019-04-13 11:00:00 13.1 4 Norte 10 Noroeste 0 -- -- 42
2019-04-13 10:00:00 9.9 6 Norte 15 Norte 0 -- -- 53
2019-04-13 09:00:00 7 10 Noroeste 15 Noroeste 0 -- -- 66
2019-04-13 08:00:00 6.5 12 Noroeste 17 Noroeste 0 -- -- 68
2019-04-13 07:00:00 4.6 0 Calma 9 Oeste 0 -- -- 79
2019-04-13 06:00:00 5.1 4 Oeste 10 Oeste 0 -- -- 76
2019-04-13 05:00:00 5.7 6 Noroeste 12 Noroeste 0 -- -- 75
2019-04-13 04:00:00 6.3 5 Oeste 10 Noroeste 0 -- -- 72
2019-04-13 03:00:00 6.9 7 Noroeste 10 Noroeste 0 -- -- 71
2019-04-13 02:00:00 7.5 6 Noroeste 10 Noroeste 0 -- -- 70
2019-04-13 01:00:00 8.1 4 Noroeste 11 Noroeste 0 -- -- 70
2019-04-13 00:00:00 9.1 2 Oeste 6 Noroeste 0 -- -- 67
2019-04-12 23:00:00 10.1 2 Noroeste 8 Norte 0 -- -- 64
2019-04-12 22:00:00 11.5 3 Norte 8 Sudoeste 0 -- -- 59
2019-04-12 21:00:00 13.6 4 Sur 18 Sur 0 -- -- 50
2019-04-12 20:00:00 15.7 11 Sur 29 Sur 0 -- -- 44
2019-04-12 19:00:00 16.6 15 Sur 31 Sudoeste 0 -- -- 42
2019-04-12 18:00:00 17.1 18 Sur 28 Sur 0 -- -- 40
2019-04-12 17:00:00 17.2 9 Norte 21 Noroeste 0 -- -- 37
2019-04-12 16:00:00 17 11 Norte 22 Norte 0 -- -- 37
2019-04-12 15:00:00 16.8 10 Norte 20 Norte 0 -- -- 38
2019-04-12 14:00:00 15.1 10 Noroeste 27 Noroeste 0 -- -- 43
2019-04-12 13:00:00 14.1 13 Noroeste 26 Noroeste 0 -- -- 47
2019-04-12 12:00:00 12.9 16 Noroeste 29 Noroeste 0 -- -- 49
2019-04-12 11:00:00 11.6 13 Noroeste 28 Noroeste 0 -- -- 54
2019-04-12 10:00:00 10 12 Noroeste 27 Noroeste 0 -- -- 57
2019-04-12 09:00:00 8.1 12 Noroeste 24 Noroeste 0 -- -- 65
2019-04-12 08:00:00 7.5 13 Noroeste 24 Oeste 0 -- -- 65
2019-04-12 07:00:00 7.5 11 Noroeste 25 Noroeste 0 -- -- 65
2019-04-12 06:00:00 7.8 14 Noroeste 30 Noroeste 0 -- -- 67
2019-04-12 05:00:00 7.8 12 Noroeste 24 Oeste 0 -- -- 64
2019-04-12 04:00:00 8 10 Noroeste 30 Noroeste 0 -- -- 62
2019-04-12 03:00:00 8.6 17 Noroeste 37 Oeste 0 -- -- 59
2019-04-12 02:00:00 9.2 15 Noroeste 39 Noroeste 0 -- -- 58
2019-04-12 01:00:00 10.1 20 Noroeste 42 Noroeste 0 -- -- 53
2019-04-12 00:00:00 10.4 29 Noroeste 37 Noroeste 0 -- -- 60
2019-04-11 23:00:00 11.1 26 Noroeste 35 Noroeste 0 -- -- 51
2019-04-11 22:00:00 12 18 Noroeste 34 Noroeste 0 -- -- 51
2019-04-11 21:00:00 12.9 20 Norte 35 Noroeste 0 -- -- 49
2019-04-11 20:00:00 14.3 24 Noroeste 40 Noroeste 0 -- -- 39
2019-04-11 19:00:00 14.6 26 Noroeste 48 Noroeste 0 -- -- 40
2019-04-11 18:00:00 15.3 22 Noroeste 40 Noroeste 0 -- -- 39
2019-04-11 17:00:00 15.2 22 Noroeste 38 Noroeste 0 -- -- 38
2019-04-11 16:00:00 15.7 20 Noroeste 47 Noroeste 0 -- -- 39
2019-04-11 15:00:00 14.8 21 Noroeste 45 Noroeste 0 -- -- 40
2019-04-11 14:00:00 14.1 23 Noroeste 40 Noroeste 0 -- -- 40
2019-04-11 13:00:00 13.1 19 Noroeste 39 Noroeste 0 -- -- 47
2019-04-11 12:00:00 11.7 22 Noroeste 40 Norte 0 -- -- 52
2019-04-11 11:00:00 11 31 Noroeste 45 Norte 0 -- -- 51
2019-04-11 10:00:00 10.2 21 Noroeste 37 Norte 0 -- -- 54
2019-04-11 09:00:00 8.6 20 Noroeste 33 Noroeste 0 -- -- 60
2019-04-11 08:00:00 8.3 18 Noroeste 29 Norte 0 -- -- 60
2019-04-11 07:00:00 8.3 16 Noroeste 31 Noroeste 0 -- -- 62
2019-04-11 06:00:00 8.5 15 Noroeste 30 Noroeste 0 -- -- 65
2019-04-11 05:00:00 8.5 14 Noroeste 33 Noroeste 0 -- -- 65
2019-04-11 04:00:00 8.7 18 Noroeste 31 Oeste 0 -- -- 62
2019-04-11 03:00:00 8.8 14 Noroeste 27 Oeste 0 -- -- 62
2019-04-11 02:00:00 9.2 11 Noroeste 19 Noroeste 0 -- -- 62
2019-04-11 01:00:00 9.7 10 Noroeste 18 Noroeste 0 -- -- 66
2019-04-11 00:00:00 9.5 5 Noroeste 11 Noroeste 0 -- -- 68
2019-04-10 23:00:00 9.9 3 Noroeste 15 Noroeste 0 -- -- 65
2019-04-10 22:00:00 10.3 13 Noroeste 30 Noroeste 0 -- -- 63
2019-04-10 21:00:00 11.1 25 Noroeste 40 Noroeste 0 -- -- 57
2019-04-10 20:00:00 12.9 11 Noroeste 23 Norte 0 -- -- 47
2019-04-10 19:00:00 12.6 8 Noroeste 39 Noroeste 0 -- -- 48
2019-04-10 18:00:00 13.1 9 Noroeste 33 Noroeste 0 -- -- 48
2019-04-10 17:00:00 13.4 11 Noroeste 36 Noroeste 0 -- -- 44
2019-04-10 16:00:00 14.5 14 Noroeste 37 Noroeste 0 -- -- 40
2019-04-10 15:00:00 13.8 14 Noroeste 37 Noroeste 0 -- -- 42
2019-04-10 14:00:00 12.7 22 Noroeste 40 Noroeste 0 -- -- 46
2019-04-10 13:00:00 12.2 24 Norte 39 Noroeste 0 -- -- 49
2019-04-10 12:00:00 11.9 20 Norte 40 Noroeste 0 -- -- 49
2019-04-10 11:00:00 10.5 25 Noroeste 42 Noroeste 0 -- -- 56
2019-04-10 10:00:00 9.7 26 Noroeste 45 Noroeste 0 -- -- 62
2019-04-10 09:00:00 8.6 22 Noroeste 43 Norte 0 -- -- 67
2019-04-10 08:00:00 8.3 20 Noroeste 40 Noroeste 0 -- -- 67
2019-04-10 07:00:00 8.5 24 Noroeste 45 Noroeste 0 -- -- 67
2019-04-10 06:00:00 8.8 19 Noroeste 42 Noroeste 0 -- -- 65
2019-04-10 05:00:00 8.7 19 Noroeste 37 Noroeste 0 -- -- 65
2019-04-10 04:00:00 8.9 18 Noroeste 29 Noroeste 0 -- -- 66
2019-04-10 03:00:00 9 11 Noroeste 24 Noroeste 0 -- -- 65
2019-04-10 02:00:00 9 18 Noroeste 32 Norte 0 -- -- 64
2019-04-10 01:00:00 8.9 15 Noroeste 39 Norte 0 -- -- 66
2019-04-10 00:00:00 9.2 21 Noroeste 39 Noroeste 0 -- -- 64
2019-04-09 23:00:00 8.9 18 Noroeste 37 Noroeste 0 -- -- 65
2019-04-09 22:00:00 8.6 15 Noroeste 42 Norte 0 -- -- 71
2019-04-09 21:00:00 9.5 23 Noroeste 40 Noroeste 0 -- -- 68
2019-04-09 20:00:00 9.2 6 Noroeste 14 Norte 0 -- -- 79
2019-04-09 19:00:00 9.2 5 Sudoeste 44 Noroeste 0.6 -- -- 83
2019-04-09 18:00:00 12.5 29 Noroeste 49 Noroeste 0 -- -- 54
2019-04-09 17:00:00 13.1 19 Noroeste 42 Noroeste 0 -- -- 50
2019-04-09 16:00:00 15.2 19 Noroeste 38 Noroeste 0 -- -- 42
2019-04-09 15:00:00 14.3 14 Noroeste 31 Noroeste 0 -- -- 42
2019-04-09 14:00:00 14.5 15 Noroeste 38 Norte 0 -- -- 41
2019-04-09 13:00:00 13.4 17 Noroeste 40 Noroeste 0 -- -- 43
2019-04-09 12:00:00 12.6 18 Noroeste 37 Noroeste 0 -- -- 47
2019-04-09 11:00:00 12 19 Noroeste 39 Noroeste 0 -- -- 49
2019-04-09 10:00:00 11 20 Noroeste 48 Noroeste 0 -- -- 55
2019-04-09 09:00:00 9.5 18 Noroeste 39 Norte 0 -- -- 64
2019-04-09 08:00:00 8.5 16 Noroeste 34 Noroeste 0 -- -- 68
2019-04-09 07:00:00 8.2 20 Noroeste 36 Noroeste 0 -- -- 72
2019-04-09 06:00:00 8.7 14 Noroeste 31 Oeste 0 -- -- 67
2019-04-09 05:00:00 9.3 20 Noroeste 39 Noroeste 0 -- -- 67
2019-04-09 04:00:00 9.1 18 Norte 36 Noroeste 0 -- -- 70
2019-04-09 03:00:00 9.3 15 Norte 26 Noroeste 0 -- -- 74
2019-04-09 02:00:00 8.6 2 Oeste 12 Noroeste 0 -- -- 76
2019-04-09 01:00:00 8.8 0 Calma 6 Noroeste 0 -- -- 78
2019-04-09 00:00:00 9.3 0 Calma 4 Oeste 0 -- -- 76
2019-04-08 23:00:00 10.4 0 Calma 2 Noroeste 0 -- -- 74
2019-04-08 22:00:00 11.7 0 Calma 8 Nordeste 0 -- -- 71
2019-04-08 21:00:00 13.1 3 Norte 10 Noroeste 0 -- -- 66
2019-04-08 20:00:00 16 6 Noroeste 35 Noroeste 0 -- -- 48
2019-04-08 19:00:00 16.2 16 Noroeste 31 Oeste 0 -- -- 48
2019-04-08 18:00:00 12.8 5 Noroeste 44 Noroeste 3.8 -- -- 90
2019-04-08 17:00:00 18.6 11 Noroeste 34 Noroeste 0 -- -- 43
2019-04-08 16:00:00 18.5 12 Oeste 29 Oeste 0 -- -- 43
2019-04-08 15:00:00 17.4 11 Norte 29 Noroeste 0 -- -- 46
2019-04-08 14:00:00 15.4 10 Noroeste 23 Noroeste 0 -- -- 54
2019-04-08 13:00:00 14.4 18 Norte 27 Norte 0 -- -- 60
2019-04-08 12:00:00 13.9 12 Noroeste 22 Noroeste 0 -- -- 61
2019-04-08 11:00:00 13.3 10 Noroeste 23 Noroeste 0 -- -- 60
2019-04-08 10:00:00 9.6 6 Norte 10 Noroeste 0 -- -- 78
2019-04-08 09:00:00 7.2 3 Noroeste 7 Oeste 0 -- -- 85
2019-04-08 08:00:00 6.7 0 Calma 14 Noroeste 0 -- -- 84
2019-04-08 07:00:00 6.7 2 Noroeste 9 Noroeste 0 -- -- 84
2019-04-08 06:00:00 7.3 2 Oeste 9 Noroeste 0 -- -- 80
2019-04-08 05:00:00 7.7 0 Calma 9 Noroeste 0 -- -- 77
2019-04-08 04:00:00 8.4 5 Noroeste 18 Noroeste 0 -- -- 75
2019-04-08 03:00:00 9.2 12 Noroeste 22 Noroeste 0 -- -- 68
2019-04-08 02:00:00 10.4 14 Norte 24 Norte 0 -- -- 60
2019-04-08 01:00:00 10.6 12 Noroeste 18 Noroeste 0 -- -- 58
2019-04-08 00:00:00 10.3 3 Oeste 8 Noroeste 0 -- -- 55
2019-04-07 23:00:00 10.5 0 Calma 7 Norte 0 -- -- 54
2019-04-07 22:00:00 11.5 0 Calma 9 Noroeste 0 -- -- 48
2019-04-07 21:00:00 12.4 3 Oeste 25 Noroeste 0 -- -- 41
2019-04-07 20:00:00 13.1 8 Noroeste 37 Noroeste 0 -- -- 40
2019-04-07 19:00:00 13.5 20 Noroeste 43 Noroeste 0 -- -- 40
2019-04-07 18:00:00 13.3 22 Noroeste 44 Noroeste 0 -- -- 38
2019-04-07 17:00:00 12.7 20 Noroeste 48 Norte 0 -- -- 39
2019-04-07 16:00:00 12.5 20 Noroeste 39 Noroeste 0 -- -- 41
2019-04-07 15:00:00 11.6 23 Norte 46 Noroeste 0 -- -- 43
2019-04-07 14:00:00 10.7 22 Noroeste 43 Noroeste 0 -- -- 48
2019-04-07 13:00:00 9.5 24 Noroeste 45 Noroeste 0 -- -- 50
2019-04-07 12:00:00 9 31 Noroeste 58 Noroeste 0 -- -- 52
2019-04-07 11:00:00 8.6 24 Noroeste 51 Noroeste 0 -- -- 54
2019-04-07 10:00:00 8.5 36 Noroeste 54 Noroeste 0 -- -- 56
2019-04-07 09:00:00 6.6 8 Noroeste 21 Noroeste 0 -- -- 67
2019-04-07 08:00:00 6.5 12 Noroeste 26 Noroeste 0 -- -- 63
2019-04-07 07:00:00 6.7 12 Noroeste 22 Noroeste 0 -- -- 62
2019-04-07 06:00:00 6.5 10 Noroeste 21 Noroeste 0 -- -- 64
2019-04-07 05:00:00 6.4 5 Noroeste 28 Noroeste 0 -- -- 69
2019-04-07 04:00:00 6.6 16 Noroeste 31 Noroeste 0 -- -- 70
2019-04-07 03:00:00 6.8 18 Noroeste 32 Noroeste 0 -- -- 71
2019-04-07 02:00:00 6.8 13 Noroeste 22 Norte 0 -- -- 69
2019-04-07 01:00:00 6.6 5 Noroeste 16 Oeste 0 -- -- 72
2019-04-07 00:00:00 7 13 Noroeste 24 Noroeste 0 -- -- 72
2019-04-06 23:00:00 7.5 9 Noroeste 15 Oeste 0 -- -- 69
2019-04-06 22:00:00 8.1 11 Noroeste 20 Noroeste 0 -- -- 64
2019-04-06 21:00:00 9.4 12 Noroeste 30 Noroeste 0 -- -- 53
2019-04-06 20:00:00 10.6 14 Noroeste 34 Noroeste 0 -- -- 47
2019-04-06 19:00:00 11.1 17 Noroeste 32 Noroeste 0.2 -- -- 48
2019-04-06 18:00:00 10.1 3 Nordeste 12 Este 0 -- -- 58
2019-04-06 17:00:00 8.6 5 Noroeste 35 Norte 0 -- -- 65
2019-04-06 16:00:00 9.9 4 Sur 40 Sur 0.4 -- -- 65
2019-04-06 15:00:00 11.3 18 Noroeste 36 Noroeste 0 -- -- 45
2019-04-06 14:00:00 10.2 8 Noroeste 44 Norte 0 -- -- 46
2019-04-06 13:00:00 10.1 13 Norte 37 Norte 0 -- -- 47
2019-04-06 12:00:00 9.5 24 Noroeste 42 Noroeste 0 -- -- 52
2019-04-06 11:00:00 9.3 17 Noroeste 44 Norte 0 -- -- 49
2019-04-06 10:00:00 8.1 7 Norte 14 Noroeste 0 -- -- 55
2019-04-06 09:00:00 4.5 2 Este 9 Este 0 -- -- 70
2019-04-06 08:00:00 4.8 4 Este 21 Noroeste 0 -- -- 67
2019-04-06 07:00:00 6.5 6 Noroeste 19 Noroeste 0 -- -- 59
2019-04-06 06:00:00 6.6 6 Oeste 43 Noroeste 0 -- -- 59
2019-04-06 05:00:00 6.7 27 Noroeste 46 Noroeste 0 -- -- 62
2019-04-06 04:00:00 6.8 24 Noroeste 39 Noroeste 0 -- -- 63
2019-04-06 03:00:00 6.7 20 Noroeste 48 Oeste 0 -- -- 63
2019-04-06 02:00:00 7.2 23 Noroeste 41 Noroeste 0 -- -- 59
2019-04-06 01:00:00 7.4 22 Noroeste 36 Noroeste 0 -- -- 58
2019-04-06 00:00:00 7.3 20 Noroeste 32 Oeste 0 -- -- 65
2019-04-05 23:00:00 7.4 14 Noroeste 33 Oeste 0 -- -- 68
2019-04-05 22:00:00 8.3 14 Noroeste 26 Noroeste 0 -- -- 67
2019-04-05 21:00:00 8.8 3 Oeste 10 Sur 0 -- -- 69
2019-04-05 20:00:00 9.1 6 Sur 14 Sur 0 -- -- 68
2019-04-05 19:00:00 9.4 3 Oeste 9 Noroeste 0 -- -- 64
2019-04-05 18:00:00 9.3 4 Noroeste 23 Noroeste 0 -- -- 65
2019-04-05 17:00:00 9.5 17 Noroeste 41 Noroeste 0 -- -- 64
2019-04-05 16:00:00 9.4 21 Noroeste 40 Noroeste 0.2 -- -- 67
2019-04-05 15:00:00 12.8 5 Noroeste 23 Sudeste 0 -- -- 50
2019-04-05 14:00:00 13.1 9 Sudeste 23 Oeste 0 -- -- 48
2019-04-05 13:00:00 12.9 8 Noroeste 28 Noroeste 0 -- -- 47
2019-04-05 12:00:00 13 9 Norte 19 Noroeste 0 -- -- 47
2019-04-05 11:00:00 10.2 2 Oeste 10 Sudoeste 0 -- -- 61
2019-04-05 10:00:00 7.2 0 Calma 5 Norte 0 -- -- 79
2019-04-05 09:00:00 5.6 4 Noroeste 6 Noroeste 0 -- -- 88
2019-04-05 08:00:00 4.7 0 Calma 6 Noroeste 0 -- -- 92
2019-04-05 07:00:00 4.7 0 Calma 6 Noroeste 0 -- -- 92
2019-04-05 06:00:00 4.9 4 Noroeste 11 Noroeste 0 -- -- 91
2019-04-05 05:00:00 5.4 5 Noroeste 10 Noroeste 0 -- -- 92
2019-04-05 04:00:00 5.1 0 Calma 5 Oeste 0 -- -- 92
2019-04-05 03:00:00 5 0 Calma 3 Sur 0 -- -- 92
2019-04-05 02:00:00 5.5 0 Calma 3 Sudoeste 0 -- -- 91
2019-04-05 01:00:00 6.5 0 Calma 4 Sur 0 -- -- 88
2019-04-05 00:00:00 7.1 4 Sur 10 Sudeste 0 -- -- 87
2019-04-04 23:00:00 7.7 4 Sur 13 Sur 0 -- -- 84
2019-04-04 22:00:00 8 6 Sur 17 Sur 0 -- -- 80
2019-04-04 21:00:00 8.5 9 Sur 23 Sur 0 -- -- 75
2019-04-04 20:00:00 10.2 14 Sur 30 Sur 0 -- -- 62
2019-04-04 19:00:00 12.2 14 Sur 32 Sur 0 -- -- 51
2019-04-04 18:00:00 13.7 15 Sur 35 Sur 0 -- -- 40
2019-04-04 17:00:00 15 7 Norte 21 Noroeste 0 -- -- 26
2019-04-04 16:00:00 13.3 12 Noroeste 25 Norte 0 -- -- 27
2019-04-04 15:00:00 12.4 12 Noroeste 30 Noroeste 0 -- -- 31
2019-04-04 14:00:00 11.8 9 Oeste 31 Noroeste 0 -- -- 33
2019-04-04 13:00:00 10.3 12 Noroeste 31 Noroeste 0 -- -- 35
2019-04-04 12:00:00 9.1 10 Noroeste 30 Norte 0 -- -- 38
2019-04-04 11:00:00 7.8 8 Noroeste 25 Noroeste 0 -- -- 42
2019-04-04 10:00:00 5.9 11 Noroeste 23 Noroeste 0 -- -- 55
2019-04-04 09:00:00 4.2 7 Norte 13 Norte 0 -- -- 67
2019-04-04 08:00:00 4.1 3 Norte 18 Noroeste 0 -- -- 72
2019-04-04 07:00:00 5 13 Noroeste 21 Noroeste 0 -- -- 72
2019-04-04 06:00:00 5.5 12 Noroeste 24 Noroeste 0 -- -- 66
2019-04-04 05:00:00 6 17 Noroeste 33 Noroeste 0 -- -- 62
2019-04-04 04:00:00 6.6 21 Noroeste 37 Noroeste 0 -- -- 62
2019-04-04 03:00:00 7 20 Noroeste 33 Noroeste 0 -- -- 60
2019-04-04 02:00:00 7.2 13 Noroeste 35 Oeste 0 -- -- 60
2019-04-04 01:00:00 7.6 18 Noroeste 31 Noroeste 0 -- -- 60
2019-04-04 00:00:00 8.7 19 Noroeste 35 Noroeste 0 -- -- 60
2019-04-03 23:00:00 10.2 14 Noroeste 24 Noroeste 0 -- -- 56
2019-04-03 22:00:00 10.5 11 Noroeste 35 Norte 0 -- -- 53
2019-04-03 21:00:00 10.7 21 Noroeste 44 Noroeste 0 -- -- 52
2019-04-03 20:00:00 12.3 17 Noroeste 36 Noroeste 0 -- -- 57
2019-04-03 19:00:00 13.1 16 Sur 34 Noroeste 0 -- -- 80
2019-04-03 18:00:00 17.3 9 Noroeste 35 Noroeste 0 -- -- 35
2019-04-03 17:00:00 18.1 17 Noroeste 39 Norte 0 -- -- 36
2019-04-03 16:00:00 17.1 13 Noroeste 33 Noroeste 0 -- -- 40
2019-04-03 15:00:00 16.8 12 Noroeste 32 Noroeste 0 -- -- 41
2019-04-03 14:00:00 16.7 13 Noroeste 36 Noroeste 0 -- -- 42
2019-04-03 13:00:00 16.5 19 Noroeste 40 Noroeste 0 -- -- 42
2019-04-03 12:00:00 14.8 3 Noroeste 7 Noroeste 0 -- -- 55
2019-04-03 11:00:00 10.8 3 Norte 6 Nordeste 0 -- -- 77
2019-04-03 10:00:00 8.4 2 Norte 12 Norte 0 -- -- 84
2019-04-03 09:00:00 6.3 8 Norte 17 Noroeste 0 -- -- 88
2019-04-03 08:00:00 6.3 4 Noroeste 19 Noroeste 0 -- -- 89
2019-04-03 07:00:00 6.8 8 Noroeste 23 Noroeste 0 -- -- 88
2019-04-03 06:00:00 7.2 14 Noroeste 20 Noroeste 0 -- -- 86
2019-04-03 05:00:00 7.2 12 Noroeste 17 Noroeste 0 -- -- 88
2019-04-03 04:00:00 6.7 0 Calma 9 Noroeste 0 -- -- 94
2019-04-03 03:00:00 6.7 0 Calma 4 Noroeste 0 -- -- 95
2019-04-03 02:00:00 7.4 0 Calma 5 Norte 0 -- -- 95
2019-04-03 01:00:00 8 0 Calma 4 Noroeste 0 -- -- 95
2019-04-03 00:00:00 8.7 0 Calma 7 Norte 0 -- -- 95
2019-04-02 23:00:00 9.7 2 Noroeste 5 Noroeste 0.2 -- -- 95
2019-04-02 22:00:00 10.6 0 Calma 4 Norte 0 -- -- 94
2019-04-02 21:00:00 11.2 3 Norte 5 Norte 0 -- -- 92
2019-04-02 20:00:00 12.2 0 Calma 4 Norte 0 -- -- 89
2019-04-02 19:00:00 13.5 0 Calma 18 Sur 0 -- -- 82
2019-04-02 18:00:00 13 14 Sur 22 Sur 1 -- -- 84
2019-04-02 17:00:00 13.7 5 Sudoeste 33 Sudoeste 0 -- -- 71
2019-04-02 16:00:00 14.4 22 Sur 37 Sudoeste 0 -- -- 66
2019-04-02 15:00:00 15.6 19 Sur 35 Sur 0 -- -- 62
2019-04-02 14:00:00 17.2 2 Noroeste 14 Noroeste 0 -- -- 51
2019-04-02 13:00:00 15.6 10 Noroeste 19 Norte 0 -- -- 57
2019-04-02 12:00:00 15.1 11 Norte 17 Norte 0 -- -- 61
2019-04-02 11:00:00 14.5 5 Norte 9 Norte 0 -- -- 65
2019-04-02 10:00:00 11.1 3 Nordeste 6 Norte 0 -- -- 80
2019-04-02 09:00:00 7.1 2 Nordeste 6 Norte 0 -- -- 98
2019-04-02 08:00:00 6.4 0 Calma 3 Nordeste 0 -- -- 97
2019-04-02 07:00:00 6.3 0 Calma 7 Oeste 0 -- -- 97
2019-04-02 06:00:00 6.5 0 Calma 4 Sur 0 -- -- 97
2019-04-02 05:00:00 6.5 0 Calma 3 Nordeste 0 -- -- 96
2019-04-02 04:00:00 7 0 Calma 4 Nordeste 0 -- -- 95
2019-04-02 03:00:00 7.1 0 Calma 8 Noroeste 0 -- -- 95
2019-04-02 02:00:00 7 2 Oeste 11 Noroeste 0 -- -- 94
2019-04-02 01:00:00 7 5 Noroeste 11 Noroeste 0.2 -- -- 94
2019-04-02 00:00:00 7.2 3 Noroeste 5 Noroeste 0 -- -- 94
2019-04-01 23:00:00 7.7 0 Calma 4 Norte 0 -- -- 92
2019-04-01 22:00:00 8.6 0 Calma 4 Norte 0 -- -- 88
2019-04-01 21:00:00 10 2 Norte 6 Norte 0 -- -- 83
2019-04-01 20:00:00 11.5 0 Calma 6 Sur 0 -- -- 76
2019-04-01 19:00:00 13.1 6 Sudoeste 11 Sudoeste 0 -- -- 62
2019-04-01 18:00:00 12.1 5 Sur 12 Sudoeste 0 -- -- 63
2019-04-01 17:00:00 11.7 6 Sur 15 Sur 0 -- -- 68
2019-04-01 16:00:00 11.7 7 Sur 14 Sur 0 -- -- 67
2019-04-01 15:00:00 11 4 Sur 9 Sur 0 -- -- 74
2019-04-01 14:00:00 9.9 0 Calma 8 Sur 0 -- -- 80
2019-04-01 13:00:00 8.9 6 Sur 12 Sur 0.2 -- -- 90
2019-04-01 12:00:00 8.7 5 Sur 9 Sur 0 -- -- 98
2019-04-01 11:00:00 8.5 3 Sur 6 Sur 0.2 -- -- 99
2019-04-01 10:00:00 8.5 0 Calma 4 Sudeste 0 -- -- 99
2019-04-01 09:00:00 8.3 0 Calma 2 Sur 0 -- -- 99
2019-04-01 08:00:00 8.1 0 Calma 2 Sudoeste 0.6 -- -- 99
2019-04-01 07:00:00 8.1 0 Calma 0 Calma 0.8 -- -- 98
2019-04-01 06:00:00 8.2 0 Calma 0 Calma 0.4 -- -- 98
2019-04-01 05:00:00 8.1 0 Calma 3 Noroeste 0.2 -- -- 98
2019-04-01 04:00:00 8.1 0 Calma 4 Oeste 0.4 -- -- 98
2019-04-01 03:00:00 8.1 0 Calma 4 Oeste 0.6 -- -- 98
2019-04-01 02:00:00 8.1 3 Sur 4 Sur 0.4 -- -- 98
2019-04-01 01:00:00 8.1 0 Calma 0 Calma 0.2 -- -- 98
2019-04-01 00:00:00 8.1 0 Calma 2 Sur 0.2 -- -- 97
2019-03-31 23:00:00 8.1 0 Calma 9 Sur 0.6 -- -- 97
2019-03-31 22:00:00 8.1 6 Sur 15 Sur 0.4 -- -- 97
2019-03-31 21:00:00 8.2 11 Sur 18 Sur 0.8 -- -- 97
2019-03-31 20:00:00 8.3 0 Calma 2 Este 1.6 -- -- 97
2019-03-31 19:00:00 8.3 0 Calma 2 Norte 2 -- -- 96
2019-03-31 18:00:00 8.1 0 Calma 3 Sudoeste 2.4 -- -- 95
2019-03-31 17:00:00 7.9 0 Calma 4 Noroeste 1.2 -- -- 95
2019-03-31 16:00:00 7.7 0 Calma 4 Sur 1.6 -- -- 95
2019-03-31 15:00:00 7.6 0 Calma 6 Oeste 1.8 -- -- 94
2019-03-31 14:00:00 7.3 0 Calma 12 Noroeste 1.8 -- -- 94
2019-03-31 13:00:00 7.1 9 Noroeste 16 Norte 2.2 -- -- 91
2019-03-31 12:00:00 7.4 2 Norte 10 Noroeste 0.6 -- -- 92
2019-03-31 11:00:00 7.2 0 Calma 16 Noroeste 1.4 -- -- 93
2019-03-31 10:00:00 7.1 9 Noroeste 18 Noroeste 1.2 -- -- 91
2019-03-31 09:00:00 7.3 0 Calma 11 Noroeste 0.2 -- -- 89
2019-03-31 08:00:00 7.3 3 Oeste 8 Noroeste 0 -- -- 85
2019-03-31 07:00:00 7 0 Calma 3 Sudeste 0 -- -- 87
2019-03-31 06:00:00 7 0 Calma 8 Sudeste 0 -- -- 87
2019-03-31 05:00:00 7.3 3 Sudeste 7 Sur 0 -- -- 86
2019-03-31 03:00:00 6.9 5 Sur 9 Sur 0 -- -- 86
2019-03-31 01:00:00 6.8 0 Calma 5 Sudeste 0 -- -- 85
2019-03-31 00:00:00 7.4 0 Calma 8 Noroeste 0 -- -- 84
2019-03-30 23:00:00 7.9 2 Norte 8 Noroeste 0 -- -- 85
2019-03-30 22:00:00 8.6 0 Calma 11 Sur 0 -- -- 81
2019-03-30 21:00:00 9.4 7 Sur 15 Sur 0 -- -- 78
2019-03-30 20:00:00 9.9 8 Sur 23 Sudoeste 0 -- -- 75
2019-03-30 19:00:00 10.8 12 Sur 29 Sudoeste 0 -- -- 71
2019-03-30 18:00:00 12 18 Sur 33 Sur 0 -- -- 63
2019-03-30 17:00:00 13.4 19 Sur 36 Sur 0 -- -- 57
2019-03-30 16:00:00 14.4 15 Sur 41 Sudoeste 0 -- -- 55
2019-03-30 15:00:00 15.1 19 Sur 37 Sur 0 -- -- 49
2019-03-30 14:00:00 15.5 11 Sur 30 Sur 0 -- -- 42
2019-03-30 13:00:00 14.6 12 Sur 25 Sur 0 -- -- 42
2019-03-30 12:00:00 13.2 7 Sudoeste 21 Sur 0 -- -- 42
2019-03-30 11:00:00 11.4 6 Sur 16 Sur 0 -- -- 47
2019-03-30 10:00:00 6.9 3 Norte 5 Noroeste 0 -- -- 64
2019-03-30 09:00:00 3.8 2 Noroeste 13 Noroeste 0 -- -- 80
2019-03-30 08:00:00 2.3 6 Norte 14 Noroeste 0 -- -- 88
2019-03-30 07:00:00 2.4 5 Noroeste 12 Noroeste 0 -- -- 91
2019-03-30 06:00:00 2.7 5 Noroeste 12 Noroeste 0 -- -- 92
2019-03-30 05:00:00 2.8 3 Noroeste 11 Norte 0 -- -- 90
2019-03-30 04:00:00 3.3 9 Noroeste 14 Noroeste 0 -- -- 88
2019-03-30 03:00:00 4.1 8 Noroeste 13 Noroeste 0 -- -- 87
2019-03-30 02:00:00 4.8 8 Noroeste 14 Noroeste 0 -- -- 87
2019-03-30 01:00:00 5.6 8 Noroeste 12 Noroeste 0 -- -- 87
2019-03-30 00:00:00 6.2 0 Calma 3 Oeste 0 -- -- 86
2019-03-29 23:00:00 7.5 0 Calma 3 Este 0 -- -- 83
2019-03-29 22:00:00 8.5 2 Sur 10 Sur 0 -- -- 82
2019-03-29 21:00:00 9 6 Sur 18 Sur 0 -- -- 81
2019-03-29 20:00:00 9.6 8 Sur 21 Sudoeste 0 -- -- 76
2019-03-29 19:00:00 11.1 12 Sur 28 Sur 0 -- -- 59
2019-03-29 18:00:00 12.9 17 Sur 31 Sur 0 -- -- 48
2019-03-29 17:00:00 13.4 18 Sur 33 Sur 0 -- -- 46
2019-03-29 16:00:00 14.2 17 Sur 36 Sur 0 -- -- 44
2019-03-29 15:00:00 14.6 17 Sur 35 Sur 0 -- -- 43
2019-03-29 14:00:00 14.5 22 Sur 37 Sur 0 -- -- 44
2019-03-29 13:00:00 14.6 19 Sur 35 Sur 0 -- -- 39
2019-03-29 12:00:00 14.3 13 Sur 33 Sur 0 -- -- 36
2019-03-29 11:00:00 12.7 11 Sur 26 Sudoeste 0 -- -- 36
2019-03-29 10:00:00 7.5 3 Norte 7 Noroeste 0 -- -- 47
2019-03-29 09:00:00 3.7 5 Noroeste 15 Noroeste 0 -- -- 59
2019-03-29 08:00:00 1.6 11 Norte 18 Norte 0 -- -- 70
2019-03-29 07:00:00 1.5 9 Noroeste 19 Norte 0 -- -- 72
2019-03-29 06:00:00 1.7 12 Noroeste 18 Noroeste 0 -- -- 73
2019-03-29 05:00:00 2.1 10 Noroeste 17 Norte 0 -- -- 75
2019-03-29 04:00:00 2.6 9 Norte 19 Norte 0 -- -- 74
2019-03-29 03:00:00 3.2 9 Norte 17 Norte 0 -- -- 74
2019-03-29 02:00:00 3.8 8 Noroeste 15 Noroeste 0 -- -- 73
2019-03-29 01:00:00 4.6 8 Noroeste 14 Noroeste 0 -- -- 72
2019-03-29 00:00:00 5.4 4 Noroeste 8 Norte 0 -- -- 71
2019-03-28 23:00:00 6.5 3 Noroeste 8 Noroeste 0 -- -- 67
2019-03-28 22:00:00 7.6 2 Noroeste 7 Noroeste 0 -- -- 66
2019-03-28 21:00:00 8.9 0 Calma 9 Sur 0 -- -- 60
2019-03-28 20:00:00 10.2 6 Sur 19 Sur 0 -- -- 52
2019-03-28 19:00:00 11.8 10 Sur 24 Sur 0 -- -- 44
2019-03-28 18:00:00 13.5 14 Sur 36 Sudoeste 0 -- -- 40
2019-03-28 17:00:00 14.7 16 Sur 35 Sudoeste 0 -- -- 38
2019-03-28 16:00:00 15.5 18 Sur 38 Sur 0 -- -- 36
2019-03-28 15:00:00 16.2 17 Sur 41 Sur 0 -- -- 36
2019-03-28 14:00:00 16.8 17 Sur 33 Sur 0 -- -- 28
2019-03-28 13:00:00 16.9 9 Sudoeste 20 Sur 0 -- -- 27
2019-03-28 12:00:00 15.6 5 Este 26 Sur 0 -- -- 26
2019-03-28 11:00:00 11.6 3 Noroeste 6 Noroeste 0 -- -- 43
2019-03-28 10:00:00 8.7 2 Norte 4 Nordeste 0 -- -- 46
2019-03-28 09:00:00 4.4 3 Noroeste 17 Noroeste 0 -- -- 61
2019-03-28 08:00:00 2.2 11 Norte 18 Norte 0 -- -- 68
2019-03-28 07:00:00 1.9 11 Noroeste 18 Noroeste 0 -- -- 72
2019-03-28 06:00:00 2.3 10 Noroeste 16 Noroeste 0 -- -- 70
2019-03-28 05:00:00 2.6 9 Noroeste 17 Norte 0 -- -- 70
2019-03-28 04:00:00 3.1 9 Norte 16 Norte 0 -- -- 69
2019-03-28 03:00:00 3.7 10 Noroeste 17 Norte 0 -- -- 65
2019-03-28 02:00:00 4.2 10 Noroeste 14 Noroeste 0 -- -- 63
2019-03-28 01:00:00 4.8 8 Noroeste 13 Noroeste 0 -- -- 64
2019-03-28 00:00:00 5.5 0 Calma 14 Noroeste 0 -- -- 59
2019-03-27 23:00:00 6.3 2 Noroeste 5 Noroeste 0 -- -- 56
2019-03-27 22:00:00 7.5 0 Calma 10 Noroeste 0 -- -- 54
2019-03-27 21:00:00 8.5 0 Calma 4 Sur 0 -- -- 46
2019-03-27 20:00:00 10.2 4 Sur 17 Sur 0 -- -- 40
2019-03-27 19:00:00 11.9 9 Sur 25 Sudoeste 0 -- -- 38
2019-03-27 18:00:00 13.9 12 Sur 32 Sur 0 -- -- 33
2019-03-27 17:00:00 15 15 Sur 36 Sudoeste 0 -- -- 32
2019-03-27 16:00:00 15.9 19 Sur 37 Sur 0 -- -- 33
2019-03-27 15:00:00 16.3 19 Sur 32 Sudoeste 0 -- -- 30
2019-03-27 14:00:00 16.4 15 Sur 30 Sur 0 -- -- 25
2019-03-27 13:00:00 16 8 Sudoeste 33 Sur 0 -- -- 24
2019-03-27 12:00:00 14.4 12 Sur 27 Sur 0 -- -- 23
2019-03-27 11:00:00 13.1 13 Sur 25 Sur 0 -- -- 29
2019-03-27 10:00:00 9.9 3 Norte 9 Noroeste 0 -- -- 56
2019-03-27 09:00:00 6.6 3 Noroeste 11 Noroeste 0 -- -- 71
2019-03-27 08:00:00 4.8 9 Noroeste 15 Noroeste 0 -- -- 82
2019-03-27 07:00:00 5.3 7 Noroeste 12 Noroeste 0 -- -- 86
2019-03-27 06:00:00 6.2 5 Noroeste 11 Noroeste 0 -- -- 84
2019-03-27 05:00:00 6.7 5 Noroeste 9 Noroeste 0 -- -- 84
2019-03-27 04:00:00 7.3 0 Calma 4 Nordeste 0 -- -- 81
2019-03-27 03:00:00 7.9 0 Calma 5 Sudoeste 0 -- -- 78
2019-03-27 02:00:00 7.9 3 Sur 6 Sur 0 -- -- 79
2019-03-27 01:00:00 7.8 2 Sur 9 Sur 0 -- -- 81
2019-03-27 00:00:00 8.4 5 Sur 9 Sur 0 -- -- 80